createdAt,value
2022-12-31T00:00:09.571Z,11.44
2022-12-31T00:02:36.741Z,11.40
2022-12-31T00:05:04.660Z,11.40
2022-12-31T00:09:57.526Z,11.40
2022-12-31T00:12:25.625Z,11.35
2022-12-31T00:14:52.613Z,11.43
2022-12-31T00:17:19.671Z,11.35
2022-12-31T00:19:46.534Z,11.31
2022-12-31T00:22:13.641Z,11.33
2022-12-31T00:24:40.713Z,11.29
2022-12-31T00:27:07.903Z,11.21
2022-12-31T00:29:34.789Z,11.21
2022-12-31T00:32:01.886Z,11.18
2022-12-31T00:34:28.960Z,11.18
2022-12-31T00:36:55.853Z,11.25
2022-12-31T00:39:22.760Z,11.24
2022-12-31T00:41:50.169Z,11.24
2022-12-31T00:44:17.137Z,11.16
2022-12-31T00:49:10.627Z,11.14
2022-12-31T00:51:37.755Z,11.06
2022-12-31T00:54:04.642Z,11.15
2022-12-31T00:56:32.527Z,11.13
2022-12-31T00:59:00.303Z,11.12
2022-12-31T01:01:34.498Z,11.12
2022-12-31T01:04:05.358Z,11.12
2022-12-31T01:06:32.687Z,11.09
2022-12-31T01:08:59.751Z,11.14
2022-12-31T01:11:29.790Z,11.08
2022-12-31T01:13:57.442Z,11.11
2022-12-31T01:16:36.922Z,11.13
2022-12-31T01:19:10.389Z,11.11
2022-12-31T01:21:40.080Z,11.06
2022-12-31T01:24:08.432Z,11.02
2022-12-31T01:26:36.348Z,11.11
2022-12-31T01:29:04.551Z,11.13
2022-12-31T01:31:31.847Z,11.12
2022-12-31T01:33:58.743Z,11.12
2022-12-31T01:36:28.219Z,11.07
2022-12-31T01:38:57.326Z,11.05
2022-12-31T01:41:27.193Z,10.97
2022-12-31T01:44:23.688Z,11.05
2022-12-31T01:46:58.549Z,10.88
2022-12-31T01:49:34.522Z,10.93
2022-12-31T01:52:06.214Z,10.93
2022-12-31T01:54:37.860Z,10.92
2022-12-31T01:57:05.563Z,10.88
2022-12-31T01:59:33.191Z,10.83
2022-12-31T02:02:01.163Z,10.87
2022-12-31T02:04:28.481Z,10.82
2022-12-31T02:07:00.449Z,10.92
2022-12-31T02:09:27.896Z,10.92
2022-12-31T02:11:54.948Z,10.93
2022-12-31T02:14:24.661Z,10.86
2022-12-31T02:17:21.142Z,10.86
2022-12-31T02:20:08.732Z,10.85
2022-12-31T02:23:04.084Z,10.83
2022-12-31T02:25:45.237Z,10.78
2022-12-31T02:28:50.031Z,10.64
2022-12-31T02:31:20.047Z,10.81
2022-12-31T02:34:01.408Z,10.81
2022-12-31T02:36:32.862Z,10.78
2022-12-31T02:38:59.860Z,10.74
2022-12-31T02:41:45.494Z,10.79
2022-12-31T02:44:30.252Z,10.75
2022-12-31T02:47:09.651Z,10.65
2022-12-31T02:49:51.918Z,10.66
2022-12-31T02:52:53.821Z,10.74
2022-12-31T02:55:41.539Z,10.76
2022-12-31T02:58:17.003Z,10.72
2022-12-31T03:01:10.322Z,10.82
2022-12-31T03:03:37.981Z,10.77
2022-12-31T03:06:05.298Z,10.73
2022-12-31T03:08:32.410Z,10.76
2022-12-31T03:10:59.259Z,10.77
2022-12-31T03:13:26.731Z,10.74
2022-12-31T03:15:53.652Z,10.74
2022-12-31T03:18:43.471Z,10.69
2022-12-31T03:21:32.443Z,10.65
2022-12-31T03:24:18.220Z,10.67
2022-12-31T03:26:45.737Z,10.65
2022-12-31T03:29:12.637Z,10.66
2022-12-31T03:31:40.003Z,10.62
2022-12-31T03:34:06.896Z,10.67
2022-12-31T03:36:53.582Z,10.60
2022-12-31T03:39:20.641Z,10.62
2022-12-31T03:41:47.523Z,10.61
2022-12-31T03:44:14.590Z,10.53
2022-12-31T03:46:41.509Z,10.50
2022-12-31T03:49:08.764Z,10.47
2022-12-31T03:51:35.761Z,10.43
2022-12-31T03:54:02.932Z,10.35
2022-12-31T03:56:29.991Z,10.35
2022-12-31T03:58:57.332Z,10.26
2022-12-31T04:01:24.863Z,10.25
2022-12-31T04:03:51.923Z,10.21
2022-12-31T04:06:18.885Z,10.20
2022-12-31T04:08:45.933Z,10.21
2022-12-31T04:11:18.966Z,10.14
2022-12-31T04:13:48.036Z,10.07
2022-12-31T04:16:15.074Z,10.09
2022-12-31T04:18:42.181Z,10.06
2022-12-31T04:21:09.131Z,9.94
2022-12-31T04:23:36.426Z,9.91
2022-12-31T04:26:03.382Z,9.91
2022-12-31T04:28:30.522Z,9.84
2022-12-31T04:30:58.262Z,9.81
2022-12-31T04:33:25.222Z,9.79
2022-12-31T04:35:52.302Z,9.80
2022-12-31T04:38:19.280Z,9.74
2022-12-31T04:41:04.731Z,9.74
2022-12-31T04:43:31.747Z,9.72
2022-12-31T04:45:58.689Z,9.62
2022-12-31T04:48:25.710Z,9.65
2022-12-31T04:50:53.361Z,9.67
2022-12-31T04:53:20.455Z,9.69
2022-12-31T04:55:47.411Z,9.63
2022-12-31T04:58:14.462Z,9.61
2022-12-31T05:00:41.471Z,9.67
2022-12-31T05:03:08.547Z,9.70
2022-12-31T05:05:39.469Z,9.70
2022-12-31T05:08:06.454Z,9.73
2022-12-31T05:10:33.483Z,9.73
2022-12-31T05:13:00.483Z,9.75
2022-12-31T05:15:27.403Z,9.73
2022-12-31T05:17:54.592Z,9.74
2022-12-31T05:20:21.770Z,9.75
2022-12-31T05:22:48.824Z,9.79
2022-12-31T05:25:15.936Z,9.78
2022-12-31T05:27:43.030Z,9.86
2022-12-31T05:30:10.575Z,9.85
2022-12-31T05:32:37.866Z,9.93
2022-12-31T05:35:05.341Z,9.88
2022-12-31T05:37:32.577Z,9.85
2022-12-31T05:40:00.393Z,9.84
2022-12-31T05:42:28.189Z,9.83
2022-12-31T05:44:55.561Z,9.92
2022-12-31T05:47:22.624Z,9.97
2022-12-31T05:49:49.671Z,9.86
2022-12-31T05:52:16.774Z,9.97
2022-12-31T05:54:43.793Z,10.01
2022-12-31T05:57:11.011Z,9.92
2022-12-31T05:59:38.532Z,10.00
2022-12-31T06:02:05.645Z,10.02
2022-12-31T06:04:33.761Z,10.14
2022-12-31T06:07:00.604Z,10.12
2022-12-31T06:09:27.712Z,10.03
2022-12-31T06:11:54.697Z,10.14
2022-12-31T06:14:22.010Z,10.15
2022-12-31T06:16:48.920Z,10.29
2022-12-31T06:19:16.914Z,10.20
2022-12-31T06:21:43.907Z,10.28
2022-12-31T06:24:10.912Z,10.17
2022-12-31T06:26:37.909Z,10.16
2022-12-31T06:29:05.271Z,10.15
2022-12-31T06:31:32.189Z,10.52
2022-12-31T06:33:59.762Z,10.44
2022-12-31T06:36:27.296Z,10.30
2022-12-31T06:38:54.622Z,10.35
2022-12-31T06:41:21.972Z,10.21
2022-12-31T06:43:49.464Z,10.49
2022-12-31T06:46:17.625Z,10.63
2022-12-31T06:48:45.774Z,10.70
2022-12-31T06:51:18.064Z,10.75
2022-12-31T06:53:46.627Z,10.84
2022-12-31T06:56:20.404Z,11.01
2022-12-31T06:58:48.284Z,10.99
2022-12-31T07:01:30.589Z,10.90
2022-12-31T07:04:19.053Z,11.06
2022-12-31T07:06:52.462Z,11.08
2022-12-31T07:09:51.550Z,11.33
2022-12-31T07:12:49.182Z,11.45
2022-12-31T07:15:40.754Z,11.52
2022-12-31T07:18:47.216Z,11.80
2022-12-31T07:21:19.491Z,11.97
2022-12-31T07:23:47.198Z,11.95
2022-12-31T07:26:34.511Z,12.16
2022-12-31T07:29:12.312Z,12.27
2022-12-31T07:32:00.752Z,12.26
2022-12-31T07:34:39.779Z,12.42
2022-12-31T07:37:28.635Z,12.54
2022-12-31T07:40:01.964Z,12.60
2022-12-31T07:42:59.963Z,12.53
2022-12-31T07:45:42.121Z,12.56
2022-12-31T07:48:28.772Z,12.55
2022-12-31T07:50:57.173Z,12.59
2022-12-31T07:53:25.328Z,12.58
2022-12-31T07:56:02.878Z,12.53
2022-12-31T07:58:39.213Z,12.61
2022-12-31T08:01:10.238Z,12.59
2022-12-31T08:04:01.108Z,12.63
2022-12-31T08:06:40.169Z,12.59
2022-12-31T08:09:44.743Z,12.55
2022-12-31T08:12:12.002Z,12.57
2022-12-31T08:14:45.378Z,12.56
2022-12-31T08:17:13.979Z,12.48
2022-12-31T08:19:41.631Z,12.46
2022-12-31T08:22:42.810Z,12.39
2022-12-31T08:25:32.822Z,12.45
2022-12-31T08:28:12.105Z,12.47
2022-12-31T08:30:48.163Z,12.50
2022-12-31T08:33:33.839Z,12.47
2022-12-31T08:36:14.930Z,12.56
2022-12-31T08:38:53.342Z,12.52
2022-12-31T08:41:48.316Z,12.66
2022-12-31T08:44:30.726Z,12.74
2022-12-31T08:47:00.130Z,12.66
2022-12-31T08:49:28.640Z,12.72
2022-12-31T08:51:56.006Z,12.83
2022-12-31T08:54:23.513Z,12.95
2022-12-31T08:56:59.985Z,12.88
2022-12-31T08:59:53.117Z,12.93
2022-12-31T09:02:43.200Z,12.95
2022-12-31T09:05:38.497Z,12.94
2022-12-31T09:08:20.615Z,13.07
2022-12-31T09:11:08.334Z,12.96
2022-12-31T09:13:58.422Z,13.12
2022-12-31T09:16:53.565Z,13.18
2022-12-31T09:19:20.623Z,13.16
2022-12-31T09:21:48.182Z,13.20
2022-12-31T09:24:15.978Z,13.26
2022-12-31T09:27:04.324Z,13.44
2022-12-31T09:29:43.905Z,13.49
2022-12-31T09:32:26.778Z,13.53
2022-12-31T09:35:08.233Z,13.53
2022-12-31T09:37:46.392Z,13.63
2022-12-31T09:40:28.753Z,13.63
2022-12-31T09:43:14.572Z,13.60
2022-12-31T09:46:29.702Z,13.28
2022-12-31T09:49:03.062Z,12.94
2022-12-31T09:51:29.970Z,13.02
2022-12-31T09:54:03.271Z,13.01
2022-12-31T09:56:34.293Z,13.08
2022-12-31T09:59:16.711Z,13.13
2022-12-31T10:02:18.201Z,13.03
2022-12-31T10:04:56.712Z,13.06
2022-12-31T10:07:26.613Z,12.95
2022-12-31T10:10:19.271Z,13.00
2022-12-31T10:13:06.311Z,12.98
2022-12-31T10:16:01.022Z,13.04
2022-12-31T10:18:47.634Z,13.14
2022-12-31T10:21:48.713Z,13.24
2022-12-31T10:24:33.962Z,13.36
2022-12-31T10:27:44.212Z,13.52
2022-12-31T10:30:17.717Z,13.58
2022-12-31T10:32:47.244Z,13.63
2022-12-31T10:35:36.115Z,13.73
2022-12-31T10:38:33.973Z,13.82
2022-12-31T10:41:35.252Z,13.86
2022-12-31T10:44:02.264Z,13.86
2022-12-31T10:46:50.587Z,13.84
2022-12-31T10:49:26.572Z,13.86
2022-12-31T10:52:21.014Z,13.86
2022-12-31T10:55:07.301Z,13.92
2022-12-31T10:57:42.058Z,13.88
2022-12-31T11:00:15.484Z,13.83
2022-12-31T11:02:48.746Z,13.84
2022-12-31T11:05:43.063Z,13.86
2022-12-31T11:08:24.223Z,13.78
2022-12-31T11:11:08.853Z,13.73
2022-12-31T11:13:58.253Z,13.61
2022-12-31T11:16:44.564Z,13.49
2022-12-31T11:19:36.611Z,13.52
2022-12-31T11:22:31.463Z,13.51
2022-12-31T11:25:23.673Z,13.31
2022-12-31T11:28:14.449Z,13.12
2022-12-31T11:31:06.886Z,12.99
2022-12-31T11:34:02.091Z,12.94
2022-12-31T11:36:55.018Z,13.05
2022-12-31T11:40:10.242Z,13.02
2022-12-31T11:42:52.838Z,12.93
2022-12-31T11:45:45.642Z,12.80
2022-12-31T11:48:32.544Z,12.70
2022-12-31T11:51:06.690Z,12.57
2022-12-31T11:54:13.319Z,12.56
2022-12-31T11:57:08.602Z,12.56
2022-12-31T11:59:36.460Z,12.73
2022-12-31T12:02:21.941Z,12.77
2022-12-31T12:04:50.522Z,12.66
2022-12-31T12:07:18.222Z,12.54
2022-12-31T12:09:46.262Z,12.52
2022-12-31T12:12:14.131Z,12.51
2022-12-31T12:14:43.552Z,12.57
2022-12-31T12:17:32.724Z,12.56
2022-12-31T12:20:16.306Z,12.61
2022-12-31T12:22:51.293Z,12.64
2022-12-31T12:25:24.008Z,12.62
2022-12-31T12:27:51.756Z,12.64
2022-12-31T12:30:27.626Z,12.72
2022-12-31T12:33:02.472Z,12.74
2022-12-31T12:35:32.254Z,12.83
2022-12-31T12:38:01.926Z,12.73
2022-12-31T12:40:33.803Z,12.72
2022-12-31T12:43:02.810Z,12.82
2022-12-31T12:45:38.763Z,12.83
2022-12-31T12:48:13.658Z,12.89
2022-12-31T12:50:44.931Z,13.03
2022-12-31T12:53:27.571Z,13.03
2022-12-31T12:56:19.046Z,13.15
2022-12-31T12:59:11.395Z,13.26
2022-12-31T13:02:00.299Z,13.31
2022-12-31T13:04:35.387Z,13.33
2022-12-31T13:07:30.381Z,13.42
2022-12-31T13:10:19.949Z,13.39
2022-12-31T13:13:23.962Z,13.48
2022-12-31T13:16:20.302Z,13.37
2022-12-31T13:19:29.752Z,13.35
2022-12-31T13:22:08.903Z,13.28
2022-12-31T13:24:43.356Z,13.25
2022-12-31T13:27:25.551Z,13.18
2022-12-31T13:29:54.941Z,13.21
2022-12-31T13:32:25.650Z,13.22
2022-12-31T13:34:57.312Z,13.26
2022-12-31T13:37:42.069Z,13.28
2022-12-31T13:40:24.644Z,13.25
2022-12-31T13:43:35.572Z,13.24
2022-12-31T13:46:20.000Z,13.27
2022-12-31T13:48:54.266Z,13.25
2022-12-31T13:51:42.306Z,13.26
2022-12-31T13:54:39.122Z,13.22
2022-12-31T13:57:15.311Z,13.18
2022-12-31T13:59:46.690Z,13.15
2022-12-31T14:02:24.924Z,13.08
2022-12-31T14:05:20.203Z,13.05
2022-12-31T14:07:54.520Z,13.07
2022-12-31T14:10:30.071Z,13.05
2022-12-31T14:13:07.569Z,13.17
2022-12-31T14:16:22.367Z,13.14
2022-12-31T14:19:18.153Z,13.04
2022-12-31T14:21:51.650Z,13.09
2022-12-31T14:24:31.700Z,13.03
2022-12-31T14:27:04.186Z,12.96
2022-12-31T14:29:46.131Z,12.92
2022-12-31T14:32:45.785Z,13.02
2022-12-31T14:35:40.162Z,13.04
2022-12-31T14:38:25.347Z,12.93
2022-12-31T14:41:11.307Z,13.05
2022-12-31T14:44:02.114Z,12.95
2022-12-31T14:46:40.384Z,12.91
2022-12-31T14:49:26.962Z,12.94
2022-12-31T14:51:54.292Z,12.93
2022-12-31T14:54:30.016Z,12.92
2022-12-31T14:56:57.097Z,13.07
2022-12-31T14:59:27.358Z,12.99
2022-12-31T15:01:55.527Z,12.98
2022-12-31T15:04:44.262Z,12.92
2022-12-31T15:07:24.000Z,12.93
2022-12-31T15:10:00.073Z,12.95
2022-12-31T15:12:31.122Z,12.88
2022-12-31T15:14:58.484Z,12.81
2022-12-31T15:17:31.201Z,12.87
2022-12-31T15:20:14.954Z,12.81
2022-12-31T15:22:47.108Z,12.76
2022-12-31T15:25:36.788Z,12.73
2022-12-31T15:28:22.722Z,12.70
2022-12-31T15:30:50.620Z,12.65
2022-12-31T15:33:42.338Z,12.58
2022-12-31T15:36:15.093Z,12.60
2022-12-31T15:38:42.942Z,12.58
2022-12-31T15:41:26.274Z,12.58
2022-12-31T15:43:56.696Z,12.59
2022-12-31T15:46:26.973Z,12.68
2022-12-31T15:49:04.237Z,12.59
2022-12-31T15:51:44.502Z,12.70
2022-12-31T15:54:22.473Z,12.66
2022-12-31T15:56:50.535Z,12.66
2022-12-31T15:59:18.685Z,12.74
2022-12-31T16:01:47.073Z,12.70
2022-12-31T16:04:28.645Z,12.71
2022-12-31T16:07:00.375Z,12.69
2022-12-31T16:09:33.901Z,12.70
2022-12-31T16:12:01.980Z,12.76
2022-12-31T16:14:31.974Z,12.80
2022-12-31T16:17:00.726Z,12.83
2022-12-31T16:19:46.328Z,12.79
2022-12-31T16:22:23.618Z,12.82
2022-12-31T16:27:49.454Z,12.90
2022-12-31T16:30:22.316Z,12.83
2022-12-31T16:32:50.738Z,12.86
2022-12-31T16:35:32.546Z,12.92
2022-12-31T16:38:20.452Z,12.90
2022-12-31T16:41:02.818Z,12.93
2022-12-31T16:43:35.938Z,12.99
2022-12-31T16:46:27.766Z,12.97
2022-12-31T16:48:54.975Z,13.18
2022-12-31T16:51:25.193Z,13.09
2022-12-31T16:53:52.684Z,13.20
2022-12-31T16:56:33.718Z,13.16
2022-12-31T16:59:04.938Z,13.28
2022-12-31T17:01:34.702Z,13.34
2022-12-31T17:04:05.753Z,13.46
2022-12-31T17:06:33.952Z,13.30
2022-12-31T17:09:15.835Z,13.40
2022-12-31T17:12:10.560Z,13.32
2022-12-31T17:14:48.754Z,13.23
2022-12-31T17:17:23.952Z,13.17
2022-12-31T17:19:56.484Z,13.17
2022-12-31T17:22:31.584Z,13.23
2022-12-31T17:25:06.593Z,13.35
2022-12-31T17:27:35.460Z,13.35
2022-12-31T17:30:30.383Z,13.27
2022-12-31T17:33:13.974Z,13.34
2022-12-31T17:35:43.076Z,13.41
2022-12-31T17:38:22.873Z,13.43
2022-12-31T17:40:54.526Z,13.58
2022-12-31T17:43:23.439Z,13.61
2022-12-31T17:45:54.780Z,13.54
2022-12-31T17:48:23.584Z,13.52
2022-12-31T17:50:59.670Z,13.53
2022-12-31T17:53:27.454Z,13.68
2022-12-31T17:56:01.947Z,13.68
2022-12-31T17:58:29.814Z,13.82
2022-12-31T18:00:57.878Z,13.76
2022-12-31T18:03:25.529Z,13.69
2022-12-31T18:05:52.577Z,13.80
2022-12-31T18:08:19.692Z,13.80
2022-12-31T18:10:46.985Z,13.79
2022-12-31T18:13:18.365Z,13.78
2022-12-31T18:15:45.736Z,14.01
2022-12-31T18:18:24.859Z,13.86
2022-12-31T18:20:55.232Z,13.75
2022-12-31T18:23:31.176Z,13.75
2022-12-31T18:25:58.367Z,13.79
2022-12-31T18:28:26.075Z,13.86
2022-12-31T18:30:53.355Z,13.91
2022-12-31T18:33:23.943Z,13.83
2022-12-31T18:36:09.552Z,13.85
2022-12-31T18:38:37.193Z,13.87
2022-12-31T18:41:04.410Z,13.82
2022-12-31T18:43:31.954Z,13.85
2022-12-31T18:45:59.346Z,13.97
2022-12-31T18:48:26.480Z,13.89
2022-12-31T18:50:53.468Z,13.92
2022-12-31T18:53:23.364Z,13.90
2022-12-31T18:55:52.188Z,13.91
2022-12-31T18:58:19.734Z,14.06
2022-12-31T19:00:47.361Z,13.96
2022-12-31T19:03:17.662Z,13.89
2022-12-31T19:05:47.243Z,13.81
2022-12-31T19:08:14.422Z,13.80
2022-12-31T19:10:41.483Z,13.78
2022-12-31T19:13:12.565Z,13.91
2022-12-31T19:15:45.691Z,13.89
2022-12-31T19:18:13.264Z,14.12
2022-12-31T19:20:41.411Z,13.95
2022-12-31T19:23:20.753Z,13.99
2022-12-31T19:25:48.737Z,13.97
2022-12-31T19:28:19.288Z,13.98
2022-12-31T19:30:46.775Z,14.02
2022-12-31T19:33:14.830Z,13.79
2022-12-31T19:35:42.579Z,13.81
2022-12-31T19:38:27.382Z,13.96
2022-12-31T19:40:55.240Z,13.97
2022-12-31T19:43:23.725Z,13.91
2022-12-31T19:45:51.769Z,13.84
2022-12-31T19:48:30.478Z,13.94
2022-12-31T19:50:59.706Z,13.80
2022-12-31T19:53:27.747Z,13.81
2022-12-31T19:55:55.135Z,13.74
2022-12-31T19:58:25.723Z,13.65
2022-12-31T20:01:01.075Z,13.67
2022-12-31T20:03:29.490Z,13.68
2022-12-31T20:06:06.622Z,13.66
2022-12-31T20:08:35.005Z,13.70
2022-12-31T20:11:22.324Z,13.65
2022-12-31T20:13:52.440Z,13.58
2022-12-31T20:16:22.586Z,13.64
2022-12-31T20:18:50.839Z,13.56
2022-12-31T20:21:24.339Z,13.54
2022-12-31T20:23:52.889Z,13.68
2022-12-31T20:26:21.633Z,13.63
2022-12-31T20:28:49.195Z,13.67
2022-12-31T20:31:19.389Z,13.64
2022-12-31T20:33:46.949Z,13.65
2022-12-31T20:36:15.315Z,13.66
2022-12-31T20:38:42.882Z,13.61
2022-12-31T20:41:13.054Z,13.71
2022-12-31T20:43:40.198Z,13.61
2022-12-31T20:46:14.477Z,13.66
2022-12-31T20:48:44.112Z,13.61
2022-12-31T20:51:11.931Z,13.61
2022-12-31T20:53:39.071Z,13.80
2022-12-31T20:56:07.260Z,13.82
2022-12-31T20:58:34.850Z,13.80
2022-12-31T21:01:06.239Z,13.76
2022-12-31T21:06:23.209Z,13.80
2022-12-31T21:08:50.430Z,13.69
2022-12-31T21:11:38.058Z,13.61
2022-12-31T21:14:05.173Z,13.71
2022-12-31T21:16:32.646Z,13.70
2022-12-31T21:18:59.790Z,13.67
2022-12-31T21:21:27.092Z,13.87
2022-12-31T21:23:54.656Z,13.98
2022-12-31T21:26:21.851Z,13.99
2022-12-31T21:28:49.021Z,14.01
2022-12-31T21:31:16.234Z,14.07
2022-12-31T21:33:47.679Z,13.93
2022-12-31T21:36:16.043Z,14.04
2022-12-31T21:38:44.021Z,13.99
2022-12-31T21:41:34.110Z,13.92
2022-12-31T21:44:02.981Z,13.89
2022-12-31T21:46:31.059Z,13.87
2022-12-31T21:48:59.495Z,13.81
2022-12-31T21:51:26.996Z,13.80
2022-12-31T21:53:54.019Z,13.76
2022-12-31T21:56:22.138Z,13.83
2022-12-31T21:59:14.664Z,13.81
2022-12-31T22:02:00.734Z,13.79
2022-12-31T22:05:00.952Z,13.77
2022-12-31T22:07:16.116Z,13.70
2022-12-31T22:09:43.212Z,13.55
2022-12-31T22:12:10.395Z,13.27
2022-12-31T22:14:37.315Z,13.11
2022-12-31T22:17:04.339Z,13.03
2022-12-31T22:19:33.703Z,13.01
2022-12-31T22:22:11.032Z,13.09
2022-12-31T22:24:38.484Z,12.93
2022-12-31T22:27:28.830Z,12.87
2022-12-31T22:29:52.514Z,12.77
2022-12-31T22:32:19.370Z,12.88
2022-12-31T22:34:46.322Z,12.98
2022-12-31T22:37:35.852Z,13.05
2022-12-31T22:40:01.488Z,13.12
2022-12-31T22:42:28.452Z,13.07
2022-12-31T22:44:55.872Z,13.06
2022-12-31T22:47:22.812Z,13.17
2022-12-31T22:49:50.151Z,13.15
2022-12-31T22:52:16.974Z,13.25
2022-12-31T22:54:44.382Z,13.15
2022-12-31T22:57:17.813Z,13.23
2022-12-31T22:59:46.919Z,13.09
2022-12-31T23:02:13.791Z,13.17
2022-12-31T23:04:40.977Z,13.15
2022-12-31T23:07:10.008Z,13.12
2022-12-31T23:09:57.257Z,13.16
2022-12-31T23:12:26.977Z,13.16
2022-12-31T23:15:13.183Z,13.09
2022-12-31T23:17:58.674Z,13.15
2022-12-31T23:20:44.766Z,13.37
2022-12-31T23:23:15.551Z,13.32
2022-12-31T23:25:48.131Z,13.35
2022-12-31T23:28:20.717Z,13.32
2022-12-31T23:30:48.111Z,13.42
2022-12-31T23:33:25.786Z,13.49
2022-12-31T23:36:06.935Z,13.57
2022-12-31T23:38:34.368Z,13.57
2022-12-31T23:41:01.343Z,13.63
2022-12-31T23:43:28.512Z,13.61
2022-12-31T23:45:55.652Z,13.59
2022-12-31T23:48:22.816Z,13.53
2022-12-31T23:50:53.620Z,13.54
2022-12-31T23:53:22.011Z,13.51
2022-12-31T23:55:48.932Z,13.52
2022-12-31T23:58:16.471Z,13.55
